sensor_id;sensor_type;location;lat;lon;timestamp;temperature;humidity
60727;DHT22;46577;49.004;12.120;2023-05-07T00:01:01;13.30;99.90
60727;DHT22;46577;49.004;12.120;2023-05-07T00:03:27;13.30;99.90
60727;DHT22;46577;49.004;12.120;2023-05-07T00:05:54;13.30;99.90
60727;DHT22;46577;49.004;12.120;2023-05-07T00:08:20;13.30;99.90
60727;DHT22;46577;49.004;12.120;2023-05-07T00:10:45;13.30;99.90
60727;DHT22;46577;49.004;12.120;2023-05-07T00:13:12;13.20;99.90
60727;DHT22;46577;49.004;12.120;2023-05-07T00:15:38;13.20;99.90
60727;DHT22;46577;49.004;12.120;2023-05-07T00:18:03;13.20;99.90
60727;DHT22;46577;49.004;12.120;2023-05-07T00:20:29;13.10;99.90
60727;DHT22;46577;49.004;12.120;2023-05-07T00:22:55;13.10;99.90
60727;DHT22;46577;49.004;12.120;2023-05-07T00:25:20;13.00;99.90
60727;DHT22;46577;49.004;12.120;2023-05-07T00:27:46;13.10;99.90
60727;DHT22;46577;49.004;12.120;2023-05-07T00:30:12;13.00;99.90
60727;DHT22;46577;49.004;12.120;2023-05-07T00:32:38;13.00;99.90
60727;DHT22;46577;49.004;12.120;2023-05-07T00:35:04;13.00;99.90
60727;DHT22;46577;49.004;12.120;2023-05-07T00:37:30;13.00;99.90
60727;DHT22;46577;49.004;12.120;2023-05-07T00:39:56;12.90;99.90
60727;DHT22;46577;49.004;12.120;2023-05-07T00:42:22;12.90;99.90
60727;DHT22;46577;49.004;12.120;2023-05-07T00:44:48;12.80;99.90
60727;DHT22;46577;49.004;12.120;2023-05-07T00:47:14;12.80;99.90
60727;DHT22;46577;49.004;12.120;2023-05-07T00:49:44;12.80;99.90
60727;DHT22;46577;49.004;12.120;2023-05-07T00:52:15;12.70;99.90
60727;DHT22;46577;49.004;12.120;2023-05-07T00:54:41;12.70;99.90
60727;DHT22;46577;49.004;12.120;2023-05-07T00:57:09;12.70;99.90
60727;DHT22;46577;49.004;12.120;2023-05-07T00:59:35;12.80;99.90
60727;DHT22;46577;49.004;12.120;2023-05-07T01:02:01;12.70;99.90
60727;DHT22;46577;49.004;12.120;2023-05-07T01:04:27;12.60;99.90
60727;DHT22;46577;49.004;12.120;2023-05-07T01:06:54;12.60;99.90
60727;DHT22;46577;49.004;12.120;2023-05-07T01:09:21;12.60;99.90
60727;DHT22;46577;49.004;12.120;2023-05-07T01:11:48;12.60;99.90
60727;DHT22;46577;49.004;12.120;2023-05-07T01:14:14;12.60;99.90
60727;DHT22;46577;49.004;12.120;2023-05-07T01:16:40;12.60;99.90
60727;DHT22;46577;49.004;12.120;2023-05-07T01:19:08;12.60;99.90
60727;DHT22;46577;49.004;12.120;2023-05-07T01:21:34;12.60;99.90
60727;DHT22;46577;49.004;12.120;2023-05-07T01:24:02;12.50;99.90
60727;DHT22;46577;49.004;12.120;2023-05-07T01:26:28;12.50;99.90
60727;DHT22;46577;49.004;12.120;2023-05-07T01:28:54;12.60;99.90
60727;DHT22;46577;49.004;12.120;2023-05-07T01:31:20;12.50;99.90
60727;DHT22;46577;49.004;12.120;2023-05-07T01:33:48;12.50;99.90
60727;DHT22;46577;49.004;12.120;2023-05-07T01:36:15;12.50;99.90
60727;DHT22;46577;49.004;12.120;2023-05-07T01:38:43;12.60;99.90
60727;DHT22;46577;49.004;12.120;2023-05-07T01:41:09;12.40;99.90
60727;DHT22;46577;49.004;12.120;2023-05-07T01:43:35;12.40;99.90
60727;DHT22;46577;49.004;12.120;2023-05-07T01:46:01;12.40;99.90
60727;DHT22;46577;49.004;12.120;2023-05-07T01:48:28;12.40;99.90
60727;DHT22;46577;49.004;12.120;2023-05-07T01:50:55;12.40;99.90
60727;DHT22;46577;49.004;12.120;2023-05-07T01:53:21;12.40;99.90
60727;DHT22;46577;49.004;12.120;2023-05-07T01:55:46;12.40;99.90
60727;DHT22;46577;49.004;12.120;2023-05-07T01:58:12;12.40;99.90
60727;DHT22;46577;49.004;12.120;2023-05-07T02:00:37;12.30;99.90
60727;DHT22;46577;49.004;12.120;2023-05-07T02:03:03;12.30;99.90
60727;DHT22;46577;49.004;12.120;2023-05-07T02:05:28;12.30;99.90
60727;DHT22;46577;49.004;12.120;2023-05-07T02:07:54;12.30;99.90
60727;DHT22;46577;49.004;12.120;2023-05-07T02:10:20;12.30;99.90
60727;DHT22;46577;49.004;12.120;2023-05-07T02:12:45;12.30;99.90
60727;DHT22;46577;49.004;12.120;2023-05-07T02:15:11;12.30;99.90
60727;DHT22;46577;49.004;12.120;2023-05-07T02:17:39;12.30;99.90
60727;DHT22;46577;49.004;12.120;2023-05-07T02:20:23;12.30;99.90
60727;DHT22;46577;49.004;12.120;2023-05-07T02:22:48;12.30;99.90
60727;DHT22;46577;49.004;12.120;2023-05-07T02:25:14;12.30;99.90
60727;DHT22;46577;49.004;12.120;2023-05-07T02:27:39;12.30;99.90
60727;DHT22;46577;49.004;12.120;2023-05-07T02:30:05;12.30;99.90
60727;DHT22;46577;49.004;12.120;2023-05-07T02:32:31;12.20;99.90
60727;DHT22;46577;49.004;12.120;2023-05-07T02:34:57;12.20;99.90
60727;DHT22;46577;49.004;12.120;2023-05-07T02:37:22;12.20;99.90
60727;DHT22;46577;49.004;12.120;2023-05-07T02:39:48;12.20;99.90
60727;DHT22;46577;49.004;12.120;2023-05-07T02:42:13;12.20;99.90
60727;DHT22;46577;49.004;12.120;2023-05-07T02:44:39;12.20;99.90
60727;DHT22;46577;49.004;12.120;2023-05-07T02:47:04;12.20;99.90
60727;DHT22;46577;49.004;12.120;2023-05-07T02:49:33;12.10;99.90
60727;DHT22;46577;49.004;12.120;2023-05-07T02:51:59;12.20;99.90
60727;DHT22;46577;49.004;12.120;2023-05-07T02:54:24;12.20;99.90
60727;DHT22;46577;49.004;12.120;2023-05-07T02:56:50;12.30;99.90
60727;DHT22;46577;49.004;12.120;2023-05-07T02:59:16;12.10;99.90
60727;DHT22;46577;49.004;12.120;2023-05-07T03:01:41;12.20;99.90
60727;DHT22;46577;49.004;12.120;2023-05-07T03:04:09;12.20;99.90
60727;DHT22;46577;49.004;12.120;2023-05-07T03:06:36;12.20;99.90
60727;DHT22;46577;49.004;12.120;2023-05-07T03:09:02;12.20;99.90
60727;DHT22;46577;49.004;12.120;2023-05-07T03:11:28;12.20;99.90
60727;DHT22;46577;49.004;12.120;2023-05-07T03:13:53;12.20;99.90
60727;DHT22;46577;49.004;12.120;2023-05-07T03:16:19;12.20;99.90
60727;DHT22;46577;49.004;12.120;2023-05-07T03:18:45;12.10;99.90
60727;DHT22;46577;49.004;12.120;2023-05-07T03:21:10;12.10;99.90
60727;DHT22;46577;49.004;12.120;2023-05-07T03:23:36;12.10;99.90
60727;DHT22;46577;49.004;12.120;2023-05-07T03:26:01;12.10;99.90
60727;DHT22;46577;49.004;12.120;2023-05-07T03:28:27;12.00;99.90
60727;DHT22;46577;49.004;12.120;2023-05-07T03:30:52;12.00;99.90
60727;DHT22;46577;49.004;12.120;2023-05-07T03:33:18;12.10;99.90
60727;DHT22;46577;49.004;12.120;2023-05-07T03:35:44;12.00;99.90
60727;DHT22;46577;49.004;12.120;2023-05-07T03:38:09;12.00;99.90
60727;DHT22;46577;49.004;12.120;2023-05-07T03:40:35;12.00;99.90
60727;DHT22;46577;49.004;12.120;2023-05-07T03:43:00;12.00;99.90
60727;DHT22;46577;49.004;12.120;2023-05-07T03:45:26;12.00;99.90
60727;DHT22;46577;49.004;12.120;2023-05-07T03:47:52;12.00;99.90
60727;DHT22;46577;49.004;12.120;2023-05-07T03:50:17;12.00;99.90
60727;DHT22;46577;49.004;12.120;2023-05-07T03:52:43;12.00;99.90
60727;DHT22;46577;49.004;12.120;2023-05-07T03:55:09;12.00;99.90
60727;DHT22;46577;49.004;12.120;2023-05-07T03:57:34;12.10;99.90
60727;DHT22;46577;49.004;12.120;2023-05-07T04:00:00;12.10;99.90
60727;DHT22;46577;49.004;12.120;2023-05-07T04:02:26;12.10;99.90
60727;DHT22;46577;49.004;12.120;2023-05-07T04:04:52;12.20;99.90
60727;DHT22;46577;49.004;12.120;2023-05-07T04:07:17;12.20;99.90
60727;DHT22;46577;49.004;12.120;2023-05-07T04:09:43;12.20;99.90
60727;DHT22;46577;49.004;12.120;2023-05-07T04:12:08;12.20;99.90
60727;DHT22;46577;49.004;12.120;2023-05-07T04:14:34;12.20;99.90
60727;DHT22;46577;49.004;12.120;2023-05-07T04:16:59;12.20;99.90
60727;DHT22;46577;49.004;12.120;2023-05-07T04:19:25;12.30;99.90
60727;DHT22;46577;49.004;12.120;2023-05-07T04:21:51;12.30;99.90
60727;DHT22;46577;49.004;12.120;2023-05-07T04:24:16;12.40;99.90
60727;DHT22;46577;49.004;12.120;2023-05-07T04:26:42;12.50;99.90
60727;DHT22;46577;49.004;12.120;2023-05-07T04:29:07;12.70;99.90
60727;DHT22;46577;49.004;12.120;2023-05-07T04:31:33;12.70;99.90
60727;DHT22;46577;49.004;12.120;2023-05-07T04:33:58;12.70;99.90
60727;DHT22;46577;49.004;12.120;2023-05-07T04:36:24;12.80;99.90
60727;DHT22;46577;49.004;12.120;2023-05-07T04:38:53;13.10;99.90
60727;DHT22;46577;49.004;12.120;2023-05-07T04:41:19;13.20;99.90
60727;DHT22;46577;49.004;12.120;2023-05-07T04:43:44;13.40;99.90
60727;DHT22;46577;49.004;12.120;2023-05-07T04:46:10;13.70;99.90
60727;DHT22;46577;49.004;12.120;2023-05-07T04:48:35;14.00;99.90
60727;DHT22;46577;49.004;12.120;2023-05-07T04:51:01;14.30;99.90
60727;DHT22;46577;49.004;12.120;2023-05-07T04:53:27;14.70;99.90
60727;DHT22;46577;49.004;12.120;2023-05-07T04:55:58;15.20;99.90
60727;DHT22;46577;49.004;12.120;2023-05-07T04:58:24;15.70;99.90
60727;DHT22;46577;49.004;12.120;2023-05-07T05:00:49;16.10;99.90
60727;DHT22;46577;49.004;12.120;2023-05-07T05:03:15;16.50;99.90
60727;DHT22;46577;49.004;12.120;2023-05-07T05:05:41;17.00;99.90
60727;DHT22;46577;49.004;12.120;2023-05-07T05:08:06;17.60;99.90
60727;DHT22;46577;49.004;12.120;2023-05-07T05:10:32;18.10;99.90
60727;DHT22;46577;49.004;12.120;2023-05-07T05:12:57;18.70;99.90
60727;DHT22;46577;49.004;12.120;2023-05-07T05:15:23;19.50;99.90
60727;DHT22;46577;49.004;12.120;2023-05-07T05:17:49;20.20;98.80
60727;DHT22;46577;49.004;12.120;2023-05-07T05:20:14;20.50;97.90
60727;DHT22;46577;49.004;12.120;2023-05-07T05:22:41;20.60;97.10
60727;DHT22;46577;49.004;12.120;2023-05-07T05:25:07;20.60;96.60
60727;DHT22;46577;49.004;12.120;2023-05-07T05:27:33;20.60;96.50
60727;DHT22;46577;49.004;12.120;2023-05-07T05:29:59;20.70;95.40
60727;DHT22;46577;49.004;12.120;2023-05-07T05:32:24;20.60;94.80
60727;DHT22;46577;49.004;12.120;2023-05-07T05:34:51;20.40;95.50
60727;DHT22;46577;49.004;12.120;2023-05-07T05:37:16;20.20;95.80
60727;DHT22;46577;49.004;12.120;2023-05-07T05:39:42;19.90;95.60
60727;DHT22;46577;49.004;12.120;2023-05-07T05:42:07;19.80;96.30
60727;DHT22;46577;49.004;12.120;2023-05-07T05:44:33;20.00;96.40
60727;DHT22;46577;49.004;12.120;2023-05-07T05:46:58;20.90;95.30
60727;DHT22;46577;49.004;12.120;2023-05-07T05:49:24;21.90;93.20
60727;DHT22;46577;49.004;12.120;2023-05-07T05:51:50;22.70;91.80
60727;DHT22;46577;49.004;12.120;2023-05-07T05:54:16;23.10;90.30
60727;DHT22;46577;49.004;12.120;2023-05-07T05:56:42;23.10;88.70
60727;DHT22;46577;49.004;12.120;2023-05-07T05:59:07;23.00;87.30
60727;DHT22;46577;49.004;12.120;2023-05-07T06:01:33;22.90;87.90
60727;DHT22;46577;49.004;12.120;2023-05-07T06:04:01;23.20;88.30
60727;DHT22;46577;49.004;12.120;2023-05-07T06:06:26;23.60;85.70
60727;DHT22;46577;49.004;12.120;2023-05-07T06:08:52;24.10;84.10
60727;DHT22;46577;49.004;12.120;2023-05-07T06:11:18;24.60;80.30
60727;DHT22;46577;49.004;12.120;2023-05-07T06:13:43;25.10;79.40
60727;DHT22;46577;49.004;12.120;2023-05-07T06:16:09;25.60;75.90
60727;DHT22;46577;49.004;12.120;2023-05-07T06:18:35;26.00;72.10
60727;DHT22;46577;49.004;12.120;2023-05-07T06:21:01;26.50;71.20
60727;DHT22;46577;49.004;12.120;2023-05-07T06:23:27;27.30;68.00
60727;DHT22;46577;49.004;12.120;2023-05-07T06:25:52;28.20;64.60
60727;DHT22;46577;49.004;12.120;2023-05-07T06:28:18;28.70;60.10
60727;DHT22;46577;49.004;12.120;2023-05-07T06:30:43;29.20;57.40
60727;DHT22;46577;49.004;12.120;2023-05-07T06:33:09;30.00;54.80
60727;DHT22;46577;49.004;12.120;2023-05-07T06:35:35;30.70;52.50
60727;DHT22;46577;49.004;12.120;2023-05-07T06:38:01;31.20;49.20
60727;DHT22;46577;49.004;12.120;2023-05-07T06:40:27;31.70;47.20
60727;DHT22;46577;49.004;12.120;2023-05-07T06:42:52;32.00;45.50
60727;DHT22;46577;49.004;12.120;2023-05-07T06:45:19;32.10;45.30
60727;DHT22;46577;49.004;12.120;2023-05-07T06:47:45;32.60;43.70
60727;DHT22;46577;49.004;12.120;2023-05-07T06:50:11;33.00;43.10
60727;DHT22;46577;49.004;12.120;2023-05-07T06:52:36;33.80;40.30
60727;DHT22;46577;49.004;12.120;2023-05-07T06:55:02;34.00;39.80
60727;DHT22;46577;49.004;12.120;2023-05-07T06:57:28;33.80;40.60
60727;DHT22;46577;49.004;12.120;2023-05-07T06:59:53;33.60;39.50
60727;DHT22;46577;49.004;12.120;2023-05-07T07:02:19;33.30;41.10
60727;DHT22;46577;49.004;12.120;2023-05-07T07:04:44;32.80;40.50
60727;DHT22;46577;49.004;12.120;2023-05-07T07:07:10;31.70;41.80
60727;DHT22;46577;49.004;12.120;2023-05-07T07:09:36;30.60;43.30
60727;DHT22;46577;49.004;12.120;2023-05-07T07:12:01;29.40;45.50
60727;DHT22;46577;49.004;12.120;2023-05-07T07:14:27;28.50;48.40
60727;DHT22;46577;49.004;12.120;2023-05-07T07:16:52;27.80;48.60
60727;DHT22;46577;49.004;12.120;2023-05-07T07:19:18;27.50;49.80
60727;DHT22;46577;49.004;12.120;2023-05-07T07:21:45;27.70;50.20
60727;DHT22;46577;49.004;12.120;2023-05-07T07:24:11;28.00;49.60
60727;DHT22;46577;49.004;12.120;2023-05-07T07:26:36;27.60;49.80
60727;DHT22;46577;49.004;12.120;2023-05-07T07:29:02;27.60;49.70
60727;DHT22;46577;49.004;12.120;2023-05-07T07:31:27;27.30;50.40
60727;DHT22;46577;49.004;12.120;2023-05-07T07:33:53;26.70;52.80
60727;DHT22;46577;49.004;12.120;2023-05-07T07:36:19;26.10;53.60
60727;DHT22;46577;49.004;12.120;2023-05-07T07:38:44;25.70;54.10
60727;DHT22;46577;49.004;12.120;2023-05-07T07:41:10;25.50;53.80
60727;DHT22;46577;49.004;12.120;2023-05-07T07:43:35;25.50;54.00
60727;DHT22;46577;49.004;12.120;2023-05-07T07:46:01;25.60;54.90
60727;DHT22;46577;49.004;12.120;2023-05-07T07:48:27;25.40;55.00
60727;DHT22;46577;49.004;12.120;2023-05-07T07:50:52;26.50;54.90
60727;DHT22;46577;49.004;12.120;2023-05-07T07:53:18;28.20;51.00
60727;DHT22;46577;49.004;12.120;2023-05-07T07:55:44;29.00;48.30
60727;DHT22;46577;49.004;12.120;2023-05-07T07:58:09;30.30;46.20
60727;DHT22;46577;49.004;12.120;2023-05-07T08:00:35;31.10;45.10
60727;DHT22;46577;49.004;12.120;2023-05-07T08:03:01;32.20;41.70
60727;DHT22;46577;49.004;12.120;2023-05-07T08:05:28;32.70;39.90
60727;DHT22;46577;49.004;12.120;2023-05-07T08:07:54;32.30;38.90
60727;DHT22;46577;49.004;12.120;2023-05-07T08:10:21;31.20;40.60
60727;DHT22;46577;49.004;12.120;2023-05-07T08:12:50;31.50;41.50
60727;DHT22;46577;49.004;12.120;2023-05-07T08:15:16;32.00;41.40
60727;DHT22;46577;49.004;12.120;2023-05-07T08:17:42;31.10;40.60
60727;DHT22;46577;49.004;12.120;2023-05-07T08:20:08;29.80;44.60
60727;DHT22;46577;49.004;12.120;2023-05-07T08:22:35;28.50;45.60
60727;DHT22;46577;49.004;12.120;2023-05-07T08:25:01;26.10;49.00
60727;DHT22;46577;49.004;12.120;2023-05-07T08:27:27;25.20;53.30
60727;DHT22;46577;49.004;12.120;2023-05-07T08:29:53;25.90;52.60
60727;DHT22;46577;49.004;12.120;2023-05-07T08:32:18;27.50;50.00
60727;DHT22;46577;49.004;12.120;2023-05-07T08:34:44;29.10;46.60
60727;DHT22;46577;49.004;12.120;2023-05-07T08:37:10;30.10;44.40
60727;DHT22;46577;49.004;12.120;2023-05-07T08:39:35;30.40;44.90
60727;DHT22;46577;49.004;12.120;2023-05-07T08:42:01;30.20;44.20
60727;DHT22;46577;49.004;12.120;2023-05-07T08:44:33;29.30;44.70
60727;DHT22;46577;49.004;12.120;2023-05-07T08:47:00;28.90;45.80
60727;DHT22;46577;49.004;12.120;2023-05-07T08:49:27;28.60;46.50
60727;DHT22;46577;49.004;12.120;2023-05-07T08:51:53;27.80;47.20
60727;DHT22;46577;49.004;12.120;2023-05-07T08:54:20;27.80;47.50
60727;DHT22;46577;49.004;12.120;2023-05-07T08:56:46;27.30;47.90
60727;DHT22;46577;49.004;12.120;2023-05-07T08:59:11;26.80;49.00
60727;DHT22;46577;49.004;12.120;2023-05-07T09:01:37;26.60;49.90
60727;DHT22;46577;49.004;12.120;2023-05-07T09:04:04;27.00;49.70
60727;DHT22;46577;49.004;12.120;2023-05-07T09:06:29;27.50;49.90
60727;DHT22;46577;49.004;12.120;2023-05-07T09:08:55;28.10;47.70
60727;DHT22;46577;49.004;12.120;2023-05-07T09:11:22;28.40;47.80
60727;DHT22;46577;49.004;12.120;2023-05-07T09:13:48;27.90;47.80
60727;DHT22;46577;49.004;12.120;2023-05-07T09:16:15;27.30;48.90
60727;DHT22;46577;49.004;12.120;2023-05-07T09:18:44;27.10;49.90
60727;DHT22;46577;49.004;12.120;2023-05-07T09:21:17;27.00;50.00
60727;DHT22;46577;49.004;12.120;2023-05-07T09:23:43;26.50;51.20
60727;DHT22;46577;49.004;12.120;2023-05-07T09:26:08;26.30;51.90
60727;DHT22;46577;49.004;12.120;2023-05-07T09:28:43;26.50;52.50
60727;DHT22;46577;49.004;12.120;2023-05-07T09:31:10;26.80;51.90
60727;DHT22;46577;49.004;12.120;2023-05-07T09:33:36;27.70;50.30
60727;DHT22;46577;49.004;12.120;2023-05-07T09:36:03;28.50;47.60
60727;DHT22;46577;49.004;12.120;2023-05-07T09:38:29;29.40;48.20
60727;DHT22;46577;49.004;12.120;2023-05-07T09:41:06;30.40;46.00
60727;DHT22;46577;49.004;12.120;2023-05-07T09:43:36;30.90;43.80
60727;DHT22;46577;49.004;12.120;2023-05-07T09:46:06;31.60;43.30
60727;DHT22;46577;49.004;12.120;2023-05-07T09:48:32;33.20;42.00
60727;DHT22;46577;49.004;12.120;2023-05-07T09:51:02;34.60;38.40
60727;DHT22;46577;49.004;12.120;2023-05-07T09:53:29;34.90;36.40
60727;DHT22;46577;49.004;12.120;2023-05-07T09:55:57;34.80;37.10
60727;DHT22;46577;49.004;12.120;2023-05-07T09:58:23;35.20;37.70
60727;DHT22;46577;49.004;12.120;2023-05-07T10:00:51;35.80;37.00
60727;DHT22;46577;49.004;12.120;2023-05-07T10:03:19;36.70;33.80
60727;DHT22;46577;49.004;12.120;2023-05-07T10:05:46;36.70;33.60
60727;DHT22;46577;49.004;12.120;2023-05-07T10:08:13;36.00;32.80
60727;DHT22;46577;49.004;12.120;2023-05-07T10:10:40;35.10;34.70
60727;DHT22;46577;49.004;12.120;2023-05-07T10:13:06;34.90;35.80
60727;DHT22;46577;49.004;12.120;2023-05-07T10:15:36;34.50;35.40
60727;DHT22;46577;49.004;12.120;2023-05-07T10:18:03;34.70;36.00
60727;DHT22;46577;49.004;12.120;2023-05-07T10:20:29;35.50;34.90
60727;DHT22;46577;49.004;12.120;2023-05-07T10:22:56;35.30;34.40
60727;DHT22;46577;49.004;12.120;2023-05-07T10:25:30;34.80;35.70
60727;DHT22;46577;49.004;12.120;2023-05-07T10:27:59;35.60;35.70
60727;DHT22;46577;49.004;12.120;2023-05-07T10:33:15;36.30;33.10
60727;DHT22;46577;49.004;12.120;2023-05-07T10:35:43;34.70;33.80
60727;DHT22;46577;49.004;12.120;2023-05-07T10:38:10;35.20;35.80
60727;DHT22;46577;49.004;12.120;2023-05-07T10:40:36;35.80;33.10
60727;DHT22;46577;49.004;12.120;2023-05-07T10:43:04;36.20;32.80
60727;DHT22;46577;49.004;12.120;2023-05-07T10:45:32;36.00;32.00
60727;DHT22;46577;49.004;12.120;2023-05-07T10:48:15;36.80;31.60
60727;DHT22;46577;49.004;12.120;2023-05-07T10:50:42;37.70;32.30
60727;DHT22;46577;49.004;12.120;2023-05-07T10:55:52;38.30;29.80
60727;DHT22;46577;49.004;12.120;2023-05-07T10:58:28;38.00;30.30
60727;DHT22;46577;49.004;12.120;2023-05-07T11:01:00;37.70;30.00
60727;DHT22;46577;49.004;12.120;2023-05-07T11:03:27;38.40;30.10
60727;DHT22;46577;49.004;12.120;2023-05-07T11:06:12;38.40;30.10
60727;DHT22;46577;49.004;12.120;2023-05-07T11:08:54;40.20;29.50
60727;DHT22;46577;49.004;12.120;2023-05-07T11:11:43;41.90;27.50
60727;DHT22;46577;49.004;12.120;2023-05-07T11:14:09;42.10;26.70
60727;DHT22;46577;49.004;12.120;2023-05-07T11:16:35;40.20;27.20
60727;DHT22;46577;49.004;12.120;2023-05-07T11:19:02;37.20;29.10
60727;DHT22;46577;49.004;12.120;2023-05-07T11:21:38;36.20;30.90
60727;DHT22;46577;49.004;12.120;2023-05-07T11:24:06;35.80;30.10
60727;DHT22;46577;49.004;12.120;2023-05-07T11:26:46;35.10;32.60
60727;DHT22;46577;49.004;12.120;2023-05-07T11:29:13;34.60;32.50
60727;DHT22;46577;49.004;12.120;2023-05-07T11:31:39;34.30;33.80
60727;DHT22;46577;49.004;12.120;2023-05-07T11:34:05;34.10;33.80
60727;DHT22;46577;49.004;12.120;2023-05-07T11:36:32;34.20;33.40
60727;DHT22;46577;49.004;12.120;2023-05-07T11:38:58;33.70;34.00
60727;DHT22;46577;49.004;12.120;2023-05-07T11:41:36;33.10;34.70
60727;DHT22;46577;49.004;12.120;2023-05-07T11:44:02;32.20;36.20
60727;DHT22;46577;49.004;12.120;2023-05-07T11:46:28;31.40;36.70
60727;DHT22;46577;49.004;12.120;2023-05-07T11:48:55;30.90;37.80
60727;DHT22;46577;49.004;12.120;2023-05-07T11:51:23;30.60;36.60
60727;DHT22;46577;49.004;12.120;2023-05-07T11:53:49;30.10;41.40
60727;DHT22;46577;49.004;12.120;2023-05-07T11:56:17;30.20;43.50
60727;DHT22;46577;49.004;12.120;2023-05-07T11:58:44;30.20;43.00
60727;DHT22;46577;49.004;12.120;2023-05-07T12:01:12;30.20;43.50
60727;DHT22;46577;49.004;12.120;2023-05-07T12:03:40;30.20;40.20
60727;DHT22;46577;49.004;12.120;2023-05-07T12:06:08;30.30;42.10
60727;DHT22;46577;49.004;12.120;2023-05-07T12:08:37;30.40;43.80
60727;DHT22;46577;49.004;12.120;2023-05-07T12:11:07;30.50;42.80
60727;DHT22;46577;49.004;12.120;2023-05-07T12:13:33;30.50;42.60
60727;DHT22;46577;49.004;12.120;2023-05-07T12:15:58;30.40;42.50
60727;DHT22;46577;49.004;12.120;2023-05-07T12:18:24;30.60;41.10
60727;DHT22;46577;49.004;12.120;2023-05-07T12:20:50;30.70;41.60
60727;DHT22;46577;49.004;12.120;2023-05-07T12:23:16;30.70;41.60
60727;DHT22;46577;49.004;12.120;2023-05-07T12:25:43;30.40;40.50
60727;DHT22;46577;49.004;12.120;2023-05-07T12:28:13;30.20;41.10
60727;DHT22;46577;49.004;12.120;2023-05-07T12:30:43;29.90;41.80
60727;DHT22;46577;49.004;12.120;2023-05-07T12:33:09;29.60;42.40
60727;DHT22;46577;49.004;12.120;2023-05-07T12:35:40;29.30;42.50
60727;DHT22;46577;49.004;12.120;2023-05-07T12:38:11;29.10;42.80
60727;DHT22;46577;49.004;12.120;2023-05-07T12:40:41;29.00;43.20
60727;DHT22;46577;49.004;12.120;2023-05-07T12:43:07;29.20;43.40
60727;DHT22;46577;49.004;12.120;2023-05-07T12:45:39;29.20;43.90
60727;DHT22;46577;49.004;12.120;2023-05-07T12:48:04;29.20;44.10
60727;DHT22;46577;49.004;12.120;2023-05-07T12:50:33;29.10;42.40
60727;DHT22;46577;49.004;12.120;2023-05-07T12:52:59;28.80;43.50
60727;DHT22;46577;49.004;12.120;2023-05-07T12:55:25;28.40;43.90
60727;DHT22;46577;49.004;12.120;2023-05-07T12:57:52;28.10;42.80
60727;DHT22;46577;49.004;12.120;2023-05-07T13:00:35;27.90;44.20
60727;DHT22;46577;49.004;12.120;2023-05-07T13:03:01;27.70;45.00
60727;DHT22;46577;49.004;12.120;2023-05-07T13:05:27;27.30;46.40
60727;DHT22;46577;49.004;12.120;2023-05-07T13:07:56;27.20;44.70
60727;DHT22;46577;49.004;12.120;2023-05-07T13:10:25;27.10;45.90
60727;DHT22;46577;49.004;12.120;2023-05-07T13:12:51;27.10;47.00
60727;DHT22;46577;49.004;12.120;2023-05-07T13:15:17;27.10;46.10
60727;DHT22;46577;49.004;12.120;2023-05-07T13:17:43;26.80;47.60
60727;DHT22;46577;49.004;12.120;2023-05-07T13:20:10;26.40;46.20
60727;DHT22;46577;49.004;12.120;2023-05-07T13:22:36;26.10;46.10
60727;DHT22;46577;49.004;12.120;2023-05-07T13:25:02;25.90;46.40
60727;DHT22;46577;49.004;12.120;2023-05-07T13:27:28;26.10;48.40
60727;DHT22;46577;49.004;12.120;2023-05-07T13:29:56;26.30;47.00
60727;DHT22;46577;49.004;12.120;2023-05-07T13:32:21;26.00;49.00
60727;DHT22;46577;49.004;12.120;2023-05-07T13:34:47;25.90;50.70
60727;DHT22;46577;49.004;12.120;2023-05-07T13:37:13;25.80;46.40
60727;DHT22;46577;49.004;12.120;2023-05-07T13:39:38;25.60;48.60
60727;DHT22;46577;49.004;12.120;2023-05-07T13:42:04;25.60;46.60
60727;DHT22;46577;49.004;12.120;2023-05-07T13:44:29;25.40;47.80
60727;DHT22;46577;49.004;12.120;2023-05-07T13:46:55;25.10;45.50
60727;DHT22;46577;49.004;12.120;2023-05-07T13:49:21;24.90;47.60
60727;DHT22;46577;49.004;12.120;2023-05-07T13:51:46;24.80;49.60
60727;DHT22;46577;49.004;12.120;2023-05-07T13:54:12;24.60;47.70
60727;DHT22;46577;49.004;12.120;2023-05-07T13:56:37;24.30;48.30
60727;DHT22;46577;49.004;12.120;2023-05-07T13:59:03;24.30;49.60
60727;DHT22;46577;49.004;12.120;2023-05-07T14:01:29;24.10;49.10
60727;DHT22;46577;49.004;12.120;2023-05-07T14:03:56;24.20;50.20
60727;DHT22;46577;49.004;12.120;2023-05-07T14:06:22;24.50;49.10
60727;DHT22;46577;49.004;12.120;2023-05-07T14:08:48;24.30;48.10
60727;DHT22;46577;49.004;12.120;2023-05-07T14:11:13;24.30;49.20
60727;DHT22;46577;49.004;12.120;2023-05-07T14:13:39;24.30;49.30
60727;DHT22;46577;49.004;12.120;2023-05-07T14:16:05;24.40;49.10
60727;DHT22;46577;49.004;12.120;2023-05-07T14:18:31;24.60;49.50
60727;DHT22;46577;49.004;12.120;2023-05-07T14:20:56;24.80;48.70
60727;DHT22;46577;49.004;12.120;2023-05-07T14:23:22;24.80;48.70
60727;DHT22;46577;49.004;12.120;2023-05-07T14:25:52;24.60;47.90
60727;DHT22;46577;49.004;12.120;2023-05-07T14:28:18;24.70;48.10
60727;DHT22;46577;49.004;12.120;2023-05-07T14:30:43;24.60;48.00
60727;DHT22;46577;49.004;12.120;2023-05-07T14:33:09;24.70;49.40
60727;DHT22;46577;49.004;12.120;2023-05-07T14:35:34;24.60;47.10
60727;DHT22;46577;49.004;12.120;2023-05-07T14:38:00;24.50;47.40
60727;DHT22;46577;49.004;12.120;2023-05-07T14:40:26;24.50;47.70
60727;DHT22;46577;49.004;12.120;2023-05-07T14:42:51;24.40;48.30
60727;DHT22;46577;49.004;12.120;2023-05-07T14:45:17;24.50;47.70
60727;DHT22;46577;49.004;12.120;2023-05-07T14:47:43;24.60;50.40
60727;DHT22;46577;49.004;12.120;2023-05-07T14:50:08;24.40;48.40
60727;DHT22;46577;49.004;12.120;2023-05-07T14:52:34;24.10;49.50
60727;DHT22;46577;49.004;12.120;2023-05-07T14:55:00;24.00;48.50
60727;DHT22;46577;49.004;12.120;2023-05-07T14:57:25;24.00;50.10
60727;DHT22;46577;49.004;12.120;2023-05-07T14:59:51;24.20;50.00
60727;DHT22;46577;49.004;12.120;2023-05-07T15:02:16;24.30;51.20
60727;DHT22;46577;49.004;12.120;2023-05-07T15:04:43;24.30;51.40
60727;DHT22;46577;49.004;12.120;2023-05-07T15:07:12;24.40;52.50
60727;DHT22;46577;49.004;12.120;2023-05-07T15:09:43;24.50;52.10
60727;DHT22;46577;49.004;12.120;2023-05-07T15:12:09;24.60;52.00
60727;DHT22;46577;49.004;12.120;2023-05-07T15:14:34;24.60;53.50
60727;DHT22;46577;49.004;12.120;2023-05-07T15:17:00;24.60;51.90